Historyczne dane pomiarowe

Dodano dane terminowe – wersja testowa.

Dane z okresu 1951-2019

Wersja bazy: 1.34 [2019-03-16, lista zmian], aktualizacja planowana na 2019-04-15

Dane meteo z obszaru Polski uzyskane na podstawie danych udostępnionych przez Instytut Meteorologii i Gospodarki Wodnej – Państwowy Instytut Badawczy.

 

Wybierz Datę:    

       

TemperaturaWilgotnośćZachmurzenieWiatrCiśnienieWidzialnośćZjawiska
 Data    tng td wb rh cc ccl cl cm ch dir g1 g2 mslp ppp      
1999-07-14 00:00:00 17.4--- 12.3 14.472wxwxwx1wx--1007.2 985.5 0.0---wx
1999-07-14 01:00:00 17.0--- 12.6 14.475wxwxwx0wx--1006.8 985.0----wx
1999-07-14 02:00:00 16.4--- 12.3 14.077wxwxwx0wx--1006.3 984.5----wx
1999-07-14 03:00:00 16.0--- 13.3 14.484wxwxwxwxwx0wx--1006.1 984.3----wx
1999-07-14 04:00:00 17.4--- 14.8 15.885wxwxwxwxwx0wx--1005.7 984.0----wx
1999-07-14 05:00:00 19.0--- 14.5 16.275wxwxwx2wx--1005.1 983.5----wx
1999-07-14 06:00:00 20.2--- 14.4 16.669wxwxwx3wx--1004.6 983.1 0.0---wx
1999-07-14 07:00:00 23.6--- 16.2 18.863wxwxwxwx2wx--1003.8 982.6----wx
1999-07-14 08:00:00 25.6--- 16.9 19.959wxwxwxwx4wx--1003.2 982.1----wx
1999-07-14 09:00:00 25.4--- 16.9 19.859wxwxwxwx5wx--1002.9 981.8----wx
1999-07-14 10:00:00 25.3--- 17.3 20.061wxwxwxwx3wx--1002.5 981.4----wx
1999-07-14 11:00:00 26.0--- 17.4 20.359wxwxwx4wx--1002.1 981.1----wx
1999-07-14 12:00:00 24.8--- 17.0 19.762wxwxwx5wx--1001.9 980.8 0.0---wx
1999-07-14 13:00:00 22.2--- 17.3 19.074wxwxwx5wx--1002.3 981.0----wxw1
1999-07-14 14:00:00 22.8--- 18.6 20.077wxwxwx2wx--1001.7 980.5----wxw1
1999-07-14 15:00:00 22.1--- 18.8 19.982wxwxwx1wx--1001.5 980.2----wxw1
1999-07-14 16:00:00 22.8--- 18.1 19.775wxwxwx2wx--1001.1 979.9----wx
1999-07-14 17:00:00 22.1--- 18.3 19.679wxwxwxwx1wx--1001.1 979.8----wx
1999-07-14 18:00:00 22.5--- 18.6 19.979wxwxwxwxwx4wx--1000.9 979.7 0.5---wxw1
1999-07-14 19:00:00 21.1--- 17.4 18.780wxwxwxwx1wx--1000.5 979.2----wx
1999-07-14 20:00:00 20.1--- 16.3 17.779wxwxwx2wx--1000.8 979.4----wx
1999-07-14 21:00:00 20.0--- 16.9 18.082wxwxwx2wx--1000.9 979.5----wx
1999-07-14 22:00:00 18.1--- 17.6 17.897wxwxwx2wx--1001.2 979.6----wx
1999-07-14 23:00:00 17.7--- 17.2 17.497wxwxwx1wx--1001.0 979.4----wxw1

 

Źródłem pochodzenia danych jest Instytut Meteorologii i Gospodarki Wodnej – Państwowy Instytut Badawczy. Dane Instytutu Meteorologii i Gospodarki Wodnej – Państwowego Instytutu Badawczego zostały przetworzone.

Dane źródłowe można odnaleźć na stronie https://dane.imgw.pl